sensor_id;sensor_type;location;lat;lon;timestamp;P1;durP1;ratioP1;P2;durP2;ratioP2
28022;SDS011;67403;50.104;8.758;2023-04-21T00:00:57;44.17;;;19.10;;
28022;SDS011;67403;50.104;8.758;2023-04-21T00:03:24;40.83;;;18.42;;
28022;SDS011;67403;50.104;8.758;2023-04-21T00:05:54;40.75;;;20.80;;
28022;SDS011;67403;50.104;8.758;2023-04-21T00:10:51;47.42;;;19.00;;
28022;SDS011;67403;50.104;8.758;2023-04-21T00:13:18;40.78;;;19.17;;
28022;SDS011;67403;50.104;8.758;2023-04-21T00:15:45;39.75;;;18.33;;
28022;SDS011;67403;50.104;8.758;2023-04-21T00:18:12;44.10;;;19.85;;
28022;SDS011;67403;50.104;8.758;2023-04-21T00:20:39;41.35;;;19.02;;
28022;SDS011;67403;50.104;8.758;2023-04-21T00:23:07;45.83;;;20.88;;
28022;SDS011;67403;50.104;8.758;2023-04-21T00:25:35;46.72;;;19.98;;
28022;SDS011;67403;50.104;8.758;2023-04-21T00:28:03;42.47;;;19.90;;
28022;SDS011;67403;50.104;8.758;2023-04-21T00:30:30;50.83;;;20.50;;
28022;SDS011;67403;50.104;8.758;2023-04-21T00:32:57;49.90;;;20.25;;
28022;SDS011;67403;50.104;8.758;2023-04-21T00:35:24;42.65;;;20.85;;
28022;SDS011;67403;50.104;8.758;2023-04-21T00:37:51;51.22;;;21.63;;
28022;SDS011;67403;50.104;8.758;2023-04-21T00:40:18;43.60;;;20.75;;
28022;SDS011;67403;50.104;8.758;2023-04-21T00:42:45;47.47;;;19.77;;
28022;SDS011;67403;50.104;8.758;2023-04-21T00:45:13;51.78;;;21.58;;
28022;SDS011;67403;50.104;8.758;2023-04-21T00:47:40;46.08;;;20.15;;
28022;SDS011;67403;50.104;8.758;2023-04-21T00:50:08;50.22;;;21.85;;
28022;SDS011;67403;50.104;8.758;2023-04-21T00:52:35;48.20;;;20.92;;
28022;SDS011;67403;50.104;8.758;2023-04-21T00:55:05;57.05;;;21.98;;
28022;SDS011;67403;50.104;8.758;2023-04-21T00:57:32;52.50;;;20.80;;
28022;SDS011;67403;50.104;8.758;2023-04-21T01:00:01;48.63;;;21.02;;
28022;SDS011;67403;50.104;8.758;2023-04-21T01:02:31;50.80;;;19.55;;
28022;SDS011;67403;50.104;8.758;2023-04-21T01:05:00;54.63;;;22.23;;
28022;SDS011;67403;50.104;8.758;2023-04-21T01:07:27;55.78;;;21.52;;
28022;SDS011;67403;50.104;8.758;2023-04-21T01:09:53;50.10;;;21.35;;
28022;SDS011;67403;50.104;8.758;2023-04-21T01:12:20;46.45;;;22.20;;
28022;SDS011;67403;50.104;8.758;2023-04-21T01:14:47;47.33;;;20.92;;
28022;SDS011;67403;50.104;8.758;2023-04-21T01:17:14;48.05;;;20.35;;
28022;SDS011;67403;50.104;8.758;2023-04-21T01:19:44;47.10;;;20.45;;
28022;SDS011;67403;50.104;8.758;2023-04-21T01:22:12;44.50;;;21.38;;
28022;SDS011;67403;50.104;8.758;2023-04-21T01:24:41;44.17;;;20.45;;
28022;SDS011;67403;50.104;8.758;2023-04-21T01:27:10;49.08;;;20.98;;
28022;SDS011;67403;50.104;8.758;2023-04-21T01:29:39;50.95;;;21.27;;
28022;SDS011;67403;50.104;8.758;2023-04-21T01:32:07;48.47;;;20.95;;
28022;SDS011;67403;50.104;8.758;2023-04-21T01:34:35;49.13;;;20.63;;
28022;SDS011;67403;50.104;8.758;2023-04-21T01:37:02;53.15;;;21.75;;
28022;SDS011;67403;50.104;8.758;2023-04-21T01:39:33;55.63;;;23.35;;
28022;SDS011;67403;50.104;8.758;2023-04-21T01:42:03;49.05;;;21.15;;
28022;SDS011;67403;50.104;8.758;2023-04-21T01:44:30;54.17;;;23.35;;
28022;SDS011;67403;50.104;8.758;2023-04-21T01:46:57;46.45;;;20.08;;
28022;SDS011;67403;50.104;8.758;2023-04-21T01:49:24;50.35;;;21.35;;
28022;SDS011;67403;50.104;8.758;2023-04-21T01:51:51;58.33;;;21.92;;
28022;SDS011;67403;50.104;8.758;2023-04-21T01:54:18;54.03;;;23.17;;
28022;SDS011;67403;50.104;8.758;2023-04-21T01:56:46;52.17;;;21.30;;
28022;SDS011;67403;50.104;8.758;2023-04-21T01:59:13;51.40;;;20.75;;
28022;SDS011;67403;50.104;8.758;2023-04-21T02:01:40;50.72;;;21.10;;
28022;SDS011;67403;50.104;8.758;2023-04-21T02:04:07;52.53;;;21.90;;
28022;SDS011;67403;50.104;8.758;2023-04-21T02:06:34;51.72;;;22.85;;
28022;SDS011;67403;50.104;8.758;2023-04-21T02:09:01;49.08;;;20.00;;
28022;SDS011;67403;50.104;8.758;2023-04-21T02:11:28;56.15;;;22.17;;
28022;SDS011;67403;50.104;8.758;2023-04-21T02:13:56;51.53;;;20.00;;
28022;SDS011;67403;50.104;8.758;2023-04-21T02:16:23;48.05;;;21.45;;
28022;SDS011;67403;50.104;8.758;2023-04-21T02:18:50;48.60;;;21.27;;
28022;SDS011;67403;50.104;8.758;2023-04-21T02:21:18;50.33;;;20.80;;
28022;SDS011;67403;50.104;8.758;2023-04-21T02:23:45;46.90;;;21.45;;
28022;SDS011;67403;50.104;8.758;2023-04-21T02:26:12;47.55;;;20.65;;
28022;SDS011;67403;50.104;8.758;2023-04-21T02:28:39;49.67;;;22.15;;
28022;SDS011;67403;50.104;8.758;2023-04-21T02:31:08;46.25;;;19.38;;
28022;SDS011;67403;50.104;8.758;2023-04-21T02:33:34;51.28;;;22.13;;
28022;SDS011;67403;50.104;8.758;2023-04-21T02:36:01;50.38;;;20.90;;
28022;SDS011;67403;50.104;8.758;2023-04-21T02:38:29;44.58;;;21.73;;
28022;SDS011;67403;50.104;8.758;2023-04-21T02:40:56;55.13;;;21.60;;
28022;SDS011;67403;50.104;8.758;2023-04-21T02:43:23;53.00;;;22.35;;
28022;SDS011;67403;50.104;8.758;2023-04-21T02:45:50;52.67;;;22.38;;
28022;SDS011;67403;50.104;8.758;2023-04-21T02:48:18;48.83;;;20.77;;
28022;SDS011;67403;50.104;8.758;2023-04-21T02:50:47;56.88;;;22.60;;
28022;SDS011;67403;50.104;8.758;2023-04-21T02:53:14;50.13;;;21.70;;
28022;SDS011;67403;50.104;8.758;2023-04-21T02:55:41;50.22;;;22.38;;
28022;SDS011;67403;50.104;8.758;2023-04-21T02:58:08;50.03;;;21.42;;
28022;SDS011;67403;50.104;8.758;2023-04-21T03:00:35;51.55;;;21.38;;
28022;SDS011;67403;50.104;8.758;2023-04-21T03:03:02;48.55;;;20.67;;
28022;SDS011;67403;50.104;8.758;2023-04-21T03:05:31;51.38;;;20.17;;
28022;SDS011;67403;50.104;8.758;2023-04-21T03:07:58;49.65;;;21.25;;
28022;SDS011;67403;50.104;8.758;2023-04-21T03:10:24;44.25;;;19.95;;
28022;SDS011;67403;50.104;8.758;2023-04-21T03:12:51;53.65;;;22.15;;
28022;SDS011;67403;50.104;8.758;2023-04-21T03:15:18;48.33;;;20.50;;
28022;SDS011;67403;50.104;8.758;2023-04-21T03:17:46;52.28;;;21.10;;
28022;SDS011;67403;50.104;8.758;2023-04-21T03:20:13;48.10;;;20.40;;
28022;SDS011;67403;50.104;8.758;2023-04-21T03:22:42;53.47;;;21.13;;
28022;SDS011;67403;50.104;8.758;2023-04-21T03:25:09;52.58;;;20.55;;
28022;SDS011;67403;50.104;8.758;2023-04-21T03:27:36;51.72;;;21.30;;
28022;SDS011;67403;50.104;8.758;2023-04-21T03:30:03;52.67;;;22.17;;
28022;SDS011;67403;50.104;8.758;2023-04-21T03:32:31;50.88;;;21.83;;
28022;SDS011;67403;50.104;8.758;2023-04-21T03:34:58;52.97;;;22.33;;
28022;SDS011;67403;50.104;8.758;2023-04-21T03:37:25;53.65;;;21.27;;
28022;SDS011;67403;50.104;8.758;2023-04-21T03:39:54;50.55;;;22.13;;
28022;SDS011;67403;50.104;8.758;2023-04-21T03:42:21;51.85;;;21.73;;
28022;SDS011;67403;50.104;8.758;2023-04-21T03:44:48;53.05;;;20.85;;
28022;SDS011;67403;50.104;8.758;2023-04-21T03:47:15;59.00;;;24.10;;
28022;SDS011;67403;50.104;8.758;2023-04-21T03:49:42;49.17;;;21.23;;
28022;SDS011;67403;50.104;8.758;2023-04-21T03:52:09;54.33;;;22.83;;
28022;SDS011;67403;50.104;8.758;2023-04-21T03:54:36;54.30;;;24.42;;
28022;SDS011;67403;50.104;8.758;2023-04-21T03:57:05;47.47;;;20.60;;
28022;SDS011;67403;50.104;8.758;2023-04-21T03:59:32;55.28;;;21.65;;
28022;SDS011;67403;50.104;8.758;2023-04-21T04:01:59;55.03;;;21.80;;
28022;SDS011;67403;50.104;8.758;2023-04-21T04:04:26;52.80;;;21.38;;
28022;SDS011;67403;50.104;8.758;2023-04-21T04:06:53;51.25;;;20.63;;
28022;SDS011;67403;50.104;8.758;2023-04-21T04:09:20;59.00;;;21.30;;
28022;SDS011;67403;50.104;8.758;2023-04-21T04:11:47;48.20;;;20.48;;
28022;SDS011;67403;50.104;8.758;2023-04-21T04:14:15;48.60;;;21.27;;
28022;SDS011;67403;50.104;8.758;2023-04-21T04:16:42;51.45;;;21.15;;
28022;SDS011;67403;50.104;8.758;2023-04-21T04:19:10;54.72;;;21.52;;
28022;SDS011;67403;50.104;8.758;2023-04-21T04:21:37;51.17;;;21.40;;
28022;SDS011;67403;50.104;8.758;2023-04-21T04:24:04;55.10;;;22.20;;
28022;SDS011;67403;50.104;8.758;2023-04-21T04:26:32;45.10;;;20.58;;
28022;SDS011;67403;50.104;8.758;2023-04-21T04:28:59;54.70;;;22.08;;
28022;SDS011;67403;50.104;8.758;2023-04-21T04:31:28;47.95;;;21.25;;
28022;SDS011;67403;50.104;8.758;2023-04-21T04:33:55;55.83;;;21.65;;
28022;SDS011;67403;50.104;8.758;2023-04-21T04:36:22;51.08;;;22.48;;
28022;SDS011;67403;50.104;8.758;2023-04-21T04:38:49;47.65;;;20.75;;
28022;SDS011;67403;50.104;8.758;2023-04-21T04:41:16;54.08;;;21.08;;
28022;SDS011;67403;50.104;8.758;2023-04-21T04:43:43;49.78;;;20.45;;
28022;SDS011;67403;50.104;8.758;2023-04-21T04:46:11;44.22;;;20.23;;
28022;SDS011;67403;50.104;8.758;2023-04-21T04:48:40;47.90;;;19.65;;
28022;SDS011;67403;50.104;8.758;2023-04-21T04:51:07;46.60;;;20.55;;
28022;SDS011;67403;50.104;8.758;2023-04-21T04:53:34;43.90;;;19.58;;
28022;SDS011;67403;50.104;8.758;2023-04-21T04:56:01;52.67;;;20.73;;
28022;SDS011;67403;50.104;8.758;2023-04-21T04:58:28;50.00;;;20.02;;
28022;SDS011;67403;50.104;8.758;2023-04-21T05:00:55;46.78;;;19.60;;
28022;SDS011;67403;50.104;8.758;2023-04-21T05:03:22;47.50;;;19.70;;
28022;SDS011;67403;50.104;8.758;2023-04-21T05:05:50;46.13;;;19.40;;
28022;SDS011;67403;50.104;8.758;2023-04-21T05:08:18;47.05;;;19.38;;
28022;SDS011;67403;50.104;8.758;2023-04-21T05:10:45;46.17;;;19.85;;
28022;SDS011;67403;50.104;8.758;2023-04-21T05:13:15;48.70;;;20.70;;
28022;SDS011;67403;50.104;8.758;2023-04-21T05:15:42;48.47;;;19.88;;
28022;SDS011;67403;50.104;8.758;2023-04-21T05:18:09;42.80;;;19.83;;
28022;SDS011;67403;50.104;8.758;2023-04-21T05:20:39;46.65;;;18.63;;
28022;SDS011;67403;50.104;8.758;2023-04-21T05:23:07;46.25;;;19.95;;
28022;SDS011;67403;50.104;8.758;2023-04-21T05:25:34;43.95;;;18.58;;
28022;SDS011;67403;50.104;8.758;2023-04-21T05:28:02;47.50;;;20.40;;
28022;SDS011;67403;50.104;8.758;2023-04-21T05:30:29;42.45;;;18.45;;
28022;SDS011;67403;50.104;8.758;2023-04-21T05:32:56;40.22;;;18.20;;
28022;SDS011;67403;50.104;8.758;2023-04-21T05:35:23;43.83;;;18.85;;
28022;SDS011;67403;50.104;8.758;2023-04-21T05:37:50;46.50;;;18.80;;
28022;SDS011;67403;50.104;8.758;2023-04-21T05:40:19;47.50;;;20.08;;
28022;SDS011;67403;50.104;8.758;2023-04-21T05:42:46;40.83;;;19.05;;
28022;SDS011;67403;50.104;8.758;2023-04-21T05:45:13;41.75;;;18.48;;
28022;SDS011;67403;50.104;8.758;2023-04-21T05:47:40;45.88;;;18.40;;
28022;SDS011;67403;50.104;8.758;2023-04-21T05:50:07;49.72;;;19.08;;
28022;SDS011;67403;50.104;8.758;2023-04-21T05:52:35;39.20;;;18.52;;
28022;SDS011;67403;50.104;8.758;2023-04-21T05:55:02;42.25;;;18.17;;
28022;SDS011;67403;50.104;8.758;2023-04-21T05:57:31;41.40;;;18.65;;
28022;SDS011;67403;50.104;8.758;2023-04-21T05:59:58;39.72;;;18.40;;
28022;SDS011;67403;50.104;8.758;2023-04-21T06:02:25;41.17;;;19.25;;
28022;SDS011;67403;50.104;8.758;2023-04-21T06:04:52;45.88;;;19.52;;
28022;SDS011;67403;50.104;8.758;2023-04-21T06:07:19;42.88;;;18.65;;
28022;SDS011;67403;50.104;8.758;2023-04-21T06:09:48;41.42;;;19.55;;
28022;SDS011;67403;50.104;8.758;2023-04-21T06:12:16;43.67;;;19.40;;
28022;SDS011;67403;50.104;8.758;2023-04-21T06:14:44;43.78;;;19.00;;
28022;SDS011;67403;50.104;8.758;2023-04-21T06:17:14;41.35;;;18.23;;
28022;SDS011;67403;50.104;8.758;2023-04-21T06:19:42;39.47;;;18.77;;
28022;SDS011;67403;50.104;8.758;2023-04-21T06:22:09;38.60;;;18.27;;
28022;SDS011;67403;50.104;8.758;2023-04-21T06:24:36;38.45;;;17.98;;
28022;SDS011;67403;50.104;8.758;2023-04-21T06:27:03;36.65;;;18.35;;
28022;SDS011;67403;50.104;8.758;2023-04-21T06:29:35;41.97;;;18.88;;
28022;SDS011;67403;50.104;8.758;2023-04-21T06:32:04;44.13;;;18.95;;
28022;SDS011;67403;50.104;8.758;2023-04-21T06:34:31;36.45;;;17.27;;
28022;SDS011;67403;50.104;8.758;2023-04-21T06:36:58;35.97;;;17.27;;
28022;SDS011;67403;50.104;8.758;2023-04-21T06:39:25;37.50;;;17.40;;
28022;SDS011;67403;50.104;8.758;2023-04-21T06:41:52;43.83;;;19.00;;
28022;SDS011;67403;50.104;8.758;2023-04-21T06:44:19;38.58;;;17.42;;
28022;SDS011;67403;50.104;8.758;2023-04-21T06:46:46;39.75;;;18.67;;
28022;SDS011;67403;50.104;8.758;2023-04-21T06:49:15;37.15;;;17.77;;
28022;SDS011;67403;50.104;8.758;2023-04-21T06:51:42;36.35;;;17.17;;
28022;SDS011;67403;50.104;8.758;2023-04-21T06:54:09;39.40;;;17.90;;
28022;SDS011;67403;50.104;8.758;2023-04-21T06:56:36;39.53;;;18.60;;
28022;SDS011;67403;50.104;8.758;2023-04-21T06:59:03;35.63;;;18.33;;
28022;SDS011;67403;50.104;8.758;2023-04-21T07:01:30;39.80;;;17.38;;
28022;SDS011;67403;50.104;8.758;2023-04-21T07:03:57;37.63;;;18.77;;
28022;SDS011;67403;50.104;8.758;2023-04-21T07:06:25;38.15;;;18.55;;
28022;SDS011;67403;50.104;8.758;2023-04-21T07:08:52;39.28;;;18.27;;
28022;SDS011;67403;50.104;8.758;2023-04-21T07:11:19;45.20;;;20.35;;
28022;SDS011;67403;50.104;8.758;2023-04-21T07:13:46;38.08;;;18.58;;
28022;SDS011;67403;50.104;8.758;2023-04-21T07:16:13;38.08;;;18.13;;
28022;SDS011;67403;50.104;8.758;2023-04-21T07:18:40;36.92;;;16.85;;
28022;SDS011;67403;50.104;8.758;2023-04-21T07:21:07;39.38;;;17.83;;
28022;SDS011;67403;50.104;8.758;2023-04-21T07:23:35;33.58;;;16.27;;
28022;SDS011;67403;50.104;8.758;2023-04-21T07:26:02;34.97;;;16.27;;
28022;SDS011;67403;50.104;8.758;2023-04-21T07:28:30;33.95;;;17.13;;
28022;SDS011;67403;50.104;8.758;2023-04-21T07:30:57;35.65;;;17.67;;
28022;SDS011;67403;50.104;8.758;2023-04-21T07:33:24;36.78;;;18.25;;
28022;SDS011;67403;50.104;8.758;2023-04-21T07:35:51;36.63;;;17.75;;
28022;SDS011;67403;50.104;8.758;2023-04-21T07:38:18;32.13;;;15.90;;
28022;SDS011;67403;50.104;8.758;2023-04-21T07:40:46;29.48;;;15.43;;
28022;SDS011;67403;50.104;8.758;2023-04-21T07:43:13;31.08;;;16.40;;
28022;SDS011;67403;50.104;8.758;2023-04-21T07:45:40;30.30;;;15.18;;
28022;SDS011;67403;50.104;8.758;2023-04-21T07:48:07;37.78;;;18.63;;
28022;SDS011;67403;50.104;8.758;2023-04-21T07:50:34;34.25;;;16.42;;
28022;SDS011;67403;50.104;8.758;2023-04-21T07:53:01;29.60;;;16.17;;
28022;SDS011;67403;50.104;8.758;2023-04-21T07:55:29;33.55;;;15.98;;
28022;SDS011;67403;50.104;8.758;2023-04-21T07:57:57;37.75;;;16.38;;
28022;SDS011;67403;50.104;8.758;2023-04-21T08:00:25;36.08;;;16.42;;
28022;SDS011;67403;50.104;8.758;2023-04-21T08:02:52;34.25;;;17.25;;
28022;SDS011;67403;50.104;8.758;2023-04-21T08:05:19;32.78;;;15.85;;
28022;SDS011;67403;50.104;8.758;2023-04-21T08:07:46;35.08;;;16.33;;
28022;SDS011;67403;50.104;8.758;2023-04-21T08:10:13;36.83;;;17.95;;
28022;SDS011;67403;50.104;8.758;2023-04-21T08:12:40;35.35;;;18.05;;
28022;SDS011;67403;50.104;8.758;2023-04-21T08:15:09;32.90;;;15.82;;
28022;SDS011;67403;50.104;8.758;2023-04-21T08:17:36;33.85;;;17.40;;
28022;SDS011;67403;50.104;8.758;2023-04-21T08:20:04;36.25;;;17.92;;
28022;SDS011;67403;50.104;8.758;2023-04-21T08:22:31;32.03;;;16.65;;
28022;SDS011;67403;50.104;8.758;2023-04-21T08:25:00;32.00;;;15.20;;
28022;SDS011;67403;50.104;8.758;2023-04-21T08:27:27;31.75;;;16.77;;
28022;SDS011;67403;50.104;8.758;2023-04-21T08:29:54;33.88;;;17.45;;
28022;SDS011;67403;50.104;8.758;2023-04-21T08:32:22;31.02;;;16.17;;
28022;SDS011;67403;50.104;8.758;2023-04-21T08:34:50;33.90;;;16.38;;
28022;SDS011;67403;50.104;8.758;2023-04-21T08:37:18;28.45;;;15.35;;
28022;SDS011;67403;50.104;8.758;2023-04-21T08:39:46;30.90;;;16.35;;
28022;SDS011;67403;50.104;8.758;2023-04-21T08:42:15;36.10;;;18.65;;
28022;SDS011;67403;50.104;8.758;2023-04-21T08:44:43;34.30;;;17.20;;
28022;SDS011;67403;50.104;8.758;2023-04-21T08:47:10;31.30;;;16.13;;
28022;SDS011;67403;50.104;8.758;2023-04-21T08:49:40;36.13;;;16.30;;
28022;SDS011;67403;50.104;8.758;2023-04-21T08:52:10;29.05;;;15.85;;
28022;SDS011;67403;50.104;8.758;2023-04-21T08:54:38;30.95;;;16.38;;
28022;SDS011;67403;50.104;8.758;2023-04-21T08:57:06;36.53;;;17.33;;
28022;SDS011;67403;50.104;8.758;2023-04-21T08:59:33;33.22;;;16.88;;
28022;SDS011;67403;50.104;8.758;2023-04-21T09:02:07;31.20;;;15.90;;
28022;SDS011;67403;50.104;8.758;2023-04-21T09:04:36;25.80;;;14.80;;
28022;SDS011;67403;50.104;8.758;2023-04-21T09:07:05;28.70;;;15.25;;
28022;SDS011;67403;50.104;8.758;2023-04-21T09:09:33;30.35;;;15.93;;
28022;SDS011;67403;50.104;8.758;2023-04-21T09:12:17;35.88;;;16.67;;
28022;SDS011;67403;50.104;8.758;2023-04-21T09:14:44;33.65;;;17.30;;
28022;SDS011;67403;50.104;8.758;2023-04-21T09:17:11;31.70;;;16.52;;
28022;SDS011;67403;50.104;8.758;2023-04-21T09:19:40;33.50;;;16.77;;
28022;SDS011;67403;50.104;8.758;2023-04-21T09:22:09;31.20;;;16.58;;
28022;SDS011;67403;50.104;8.758;2023-04-21T09:24:43;34.20;;;17.15;;
28022;SDS011;67403;50.104;8.758;2023-04-21T09:27:11;32.90;;;16.98;;
28022;SDS011;67403;50.104;8.758;2023-04-21T09:29:44;31.17;;;15.45;;
28022;SDS011;67403;50.104;8.758;2023-04-21T09:32:15;29.88;;;15.90;;
28022;SDS011;67403;50.104;8.758;2023-04-21T09:37:11;31.75;;;15.70;;
28022;SDS011;67403;50.104;8.758;2023-04-21T09:39:40;30.25;;;15.75;;
28022;SDS011;67403;50.104;8.758;2023-04-21T09:42:10;34.55;;;15.80;;
28022;SDS011;67403;50.104;8.758;2023-04-21T09:44:38;30.88;;;15.88;;
28022;SDS011;67403;50.104;8.758;2023-04-21T09:47:04;26.95;;;14.07;;
28022;SDS011;67403;50.104;8.758;2023-04-21T09:49:36;30.65;;;16.08;;
28022;SDS011;67403;50.104;8.758;2023-04-21T09:52:10;32.22;;;15.23;;
28022;SDS011;67403;50.104;8.758;2023-04-21T09:54:42;30.13;;;16.10;;
28022;SDS011;67403;50.104;8.758;2023-04-21T09:57:16;31.73;;;15.85;;
28022;SDS011;67403;50.104;8.758;2023-04-21T09:59:48;29.88;;;15.38;;
28022;SDS011;67403;50.104;8.758;2023-04-21T10:02:22;33.50;;;16.10;;
28022;SDS011;67403;50.104;8.758;2023-04-21T10:04:51;27.90;;;14.63;;
28022;SDS011;67403;50.104;8.758;2023-04-21T10:07:20;30.85;;;17.25;;
28022;SDS011;67403;50.104;8.758;2023-04-21T10:09:48;27.88;;;15.40;;
28022;SDS011;67403;50.104;8.758;2023-04-21T10:12:19;29.77;;;15.55;;
28022;SDS011;67403;50.104;8.758;2023-04-21T10:14:49;28.70;;;15.95;;
28022;SDS011;67403;50.104;8.758;2023-04-21T10:17:16;29.67;;;16.17;;
28022;SDS011;67403;50.104;8.758;2023-04-21T10:19:52;26.42;;;14.95;;
28022;SDS011;67403;50.104;8.758;2023-04-21T10:22:29;25.67;;;14.00;;
28022;SDS011;67403;50.104;8.758;2023-04-21T10:24:57;25.38;;;14.23;;
28022;SDS011;67403;50.104;8.758;2023-04-21T10:27:31;22.88;;;14.32;;
28022;SDS011;67403;50.104;8.758;2023-04-21T10:30:00;26.02;;;14.45;;
28022;SDS011;67403;50.104;8.758;2023-04-21T10:32:40;21.30;;;13.35;;
28022;SDS011;67403;50.104;8.758;2023-04-21T10:35:09;26.67;;;13.65;;
28022;SDS011;67403;50.104;8.758;2023-04-21T10:37:38;22.58;;;13.80;;
28022;SDS011;67403;50.104;8.758;2023-04-21T10:40:06;25.52;;;14.02;;
28022;SDS011;67403;50.104;8.758;2023-04-21T10:42:53;28.45;;;14.40;;
28022;SDS011;67403;50.104;8.758;2023-04-21T10:45:21;26.05;;;15.38;;
28022;SDS011;67403;50.104;8.758;2023-04-21T10:47:51;24.70;;;13.85;;
28022;SDS011;67403;50.104;8.758;2023-04-21T10:50:19;26.17;;;14.55;;
28022;SDS011;67403;50.104;8.758;2023-04-21T10:52:53;29.60;;;13.98;;
28022;SDS011;67403;50.104;8.758;2023-04-21T10:55:24;24.13;;;14.20;;
28022;SDS011;67403;50.104;8.758;2023-04-21T10:57:52;28.73;;;15.57;;
28022;SDS011;67403;50.104;8.758;2023-04-21T11:00:19;30.25;;;16.30;;
28022;SDS011;67403;50.104;8.758;2023-04-21T11:02:54;28.27;;;13.20;;
28022;SDS011;67403;50.104;8.758;2023-04-21T11:05:26;26.38;;;14.65;;
28022;SDS011;67403;50.104;8.758;2023-04-21T11:08:02;25.98;;;13.65;;
28022;SDS011;67403;50.104;8.758;2023-04-21T11:10:43;26.13;;;15.20;;
28022;SDS011;67403;50.104;8.758;2023-04-21T11:13:21;25.27;;;13.13;;
28022;SDS011;67403;50.104;8.758;2023-04-21T11:15:56;22.15;;;13.23;;
28022;SDS011;67403;50.104;8.758;2023-04-21T11:18:32;24.08;;;11.77;;
28022;SDS011;67403;50.104;8.758;2023-04-21T11:21:06;25.52;;;13.77;;
28022;SDS011;67403;50.104;8.758;2023-04-21T11:23:36;25.40;;;13.90;;
28022;SDS011;67403;50.104;8.758;2023-04-21T11:26:05;25.20;;;13.25;;
28022;SDS011;67403;50.104;8.758;2023-04-21T11:28:32;23.77;;;12.90;;
28022;SDS011;67403;50.104;8.758;2023-04-21T11:30:59;20.80;;;13.10;;
28022;SDS011;67403;50.104;8.758;2023-04-21T11:33:27;24.25;;;12.15;;
28022;SDS011;67403;50.104;8.758;2023-04-21T11:35:54;19.25;;;12.20;;
28022;SDS011;67403;50.104;8.758;2023-04-21T11:38:23;21.20;;;11.60;;
28022;SDS011;67403;50.104;8.758;2023-04-21T11:40:51;21.63;;;12.27;;
28022;SDS011;67403;50.104;8.758;2023-04-21T11:43:19;21.10;;;12.82;;
28022;SDS011;67403;50.104;8.758;2023-04-21T11:45:47;18.08;;;11.95;;
28022;SDS011;67403;50.104;8.758;2023-04-21T11:48:15;25.17;;;12.35;;
28022;SDS011;67403;50.104;8.758;2023-04-21T11:50:46;21.80;;;12.57;;
28022;SDS011;67403;50.104;8.758;2023-04-21T11:53:13;17.08;;;10.98;;
28022;SDS011;67403;50.104;8.758;2023-04-21T11:55:41;17.17;;;11.18;;
28022;SDS011;67403;50.104;8.758;2023-04-21T11:58:10;21.08;;;12.55;;
28022;SDS011;67403;50.104;8.758;2023-04-21T12:00:40;18.58;;;11.63;;
28022;SDS011;67403;50.104;8.758;2023-04-21T12:03:10;23.58;;;13.05;;
28022;SDS011;67403;50.104;8.758;2023-04-21T12:05:38;17.38;;;11.25;;
28022;SDS011;67403;50.104;8.758;2023-04-21T12:08:05;18.30;;;11.90;;
28022;SDS011;67403;50.104;8.758;2023-04-21T12:10:32;20.08;;;11.20;;
28022;SDS011;67403;50.104;8.758;2023-04-21T12:12:59;18.33;;;11.25;;
28022;SDS011;67403;50.104;8.758;2023-04-21T12:15:28;17.38;;;11.52;;
28022;SDS011;67403;50.104;8.758;2023-04-21T12:17:55;17.50;;;11.63;;
28022;SDS011;67403;50.104;8.758;2023-04-21T12:20:22;18.08;;;11.23;;
28022;SDS011;67403;50.104;8.758;2023-04-21T12:22:50;19.30;;;11.55;;
28022;SDS011;67403;50.104;8.758;2023-04-21T12:25:17;17.40;;;11.07;;
28022;SDS011;67403;50.104;8.758;2023-04-21T12:27:47;19.77;;;11.00;;
28022;SDS011;67403;50.104;8.758;2023-04-21T12:30:15;19.80;;;12.38;;
28022;SDS011;67403;50.104;8.758;2023-04-21T12:32:43;19.67;;;11.55;;
28022;SDS011;67403;50.104;8.758;2023-04-21T12:35:11;17.45;;;11.13;;
28022;SDS011;67403;50.104;8.758;2023-04-21T12:37:38;20.63;;;11.68;;
28022;SDS011;67403;50.104;8.758;2023-04-21T12:40:05;17.73;;;11.10;;
28022;SDS011;67403;50.104;8.758;2023-04-21T12:42:33;18.63;;;11.63;;
28022;SDS011;67403;50.104;8.758;2023-04-21T12:45:00;21.15;;;10.75;;
28022;SDS011;67403;50.104;8.758;2023-04-21T12:47:27;17.65;;;11.35;;
28022;SDS011;67403;50.104;8.758;2023-04-21T12:49:56;17.00;;;10.75;;
28022;SDS011;67403;50.104;8.758;2023-04-21T12:52:23;16.63;;;9.82;;
28022;SDS011;67403;50.104;8.758;2023-04-21T12:54:50;15.13;;;10.32;;
28022;SDS011;67403;50.104;8.758;2023-04-21T12:57:17;18.60;;;11.93;;
28022;SDS011;67403;50.104;8.758;2023-04-21T12:59:44;15.13;;;9.43;;
28022;SDS011;67403;50.104;8.758;2023-04-21T13:02:11;12.77;;;8.70;;
28022;SDS011;67403;50.104;8.758;2023-04-21T13:04:38;12.40;;;9.38;;
28022;SDS011;67403;50.104;8.758;2023-04-21T13:07:07;13.13;;;9.40;;
28022;SDS011;67403;50.104;8.758;2023-04-21T13:09:34;13.10;;;9.70;;
28022;SDS011;67403;50.104;8.758;2023-04-21T13:12:01;11.10;;;8.45;;
28022;SDS011;67403;50.104;8.758;2023-04-21T13:14:28;12.90;;;8.13;;
28022;SDS011;67403;50.104;8.758;2023-04-21T13:16:55;9.95;;;7.88;;
28022;SDS011;67403;50.104;8.758;2023-04-21T13:19:22;10.48;;;8.20;;
28022;SDS011;67403;50.104;8.758;2023-04-21T13:21:49;11.25;;;8.48;;
28022;SDS011;67403;50.104;8.758;2023-04-21T13:24:18;10.65;;;7.97;;
28022;SDS011;67403;50.104;8.758;2023-04-21T13:26:45;10.85;;;7.82;;
28022;SDS011;67403;50.104;8.758;2023-04-21T13:29:12;10.73;;;7.68;;
28022;SDS011;67403;50.104;8.758;2023-04-21T13:31:39;14.95;;;8.80;;
28022;SDS011;67403;50.104;8.758;2023-04-21T13:34:05;9.23;;;7.68;;
28022;SDS011;67403;50.104;8.758;2023-04-21T13:36:32;10.30;;;7.57;;
28022;SDS011;67403;50.104;8.758;2023-04-21T13:39:00;9.32;;;7.07;;
28022;SDS011;67403;50.104;8.758;2023-04-21T13:41:30;9.70;;;7.43;;
28022;SDS011;67403;50.104;8.758;2023-04-21T13:43:56;8.70;;;7.38;;
28022;SDS011;67403;50.104;8.758;2023-04-21T13:46:23;8.20;;;6.80;;
28022;SDS011;67403;50.104;8.758;2023-04-21T13:48:51;11.23;;;7.78;;
28022;SDS011;67403;50.104;8.758;2023-04-21T13:51:19;10.57;;;7.45;;
28022;SDS011;67403;50.104;8.758;2023-04-21T13:53:46;8.25;;;7.13;;
28022;SDS011;67403;50.104;8.758;2023-04-21T13:56:13;8.23;;;7.43;;
28022;SDS011;67403;50.104;8.758;2023-04-21T13:58:41;8.93;;;6.75;;
28022;SDS011;67403;50.104;8.758;2023-04-21T14:01:08;9.33;;;6.90;;
28022;SDS011;67403;50.104;8.758;2023-04-21T14:03:35;7.93;;;6.35;;
28022;SDS011;67403;50.104;8.758;2023-04-21T14:06:02;8.05;;;6.38;;
28022;SDS011;67403;50.104;8.758;2023-04-21T14:08:30;8.27;;;6.40;;
28022;SDS011;67403;50.104;8.758;2023-04-21T14:10:56;7.72;;;6.65;;
28022;SDS011;67403;50.104;8.758;2023-04-21T14:13:23;8.40;;;6.75;;
28022;SDS011;67403;50.104;8.758;2023-04-21T14:18:21;7.28;;;5.95;;
28022;SDS011;67403;50.104;8.758;2023-04-21T14:20:48;7.85;;;6.45;;
28022;SDS011;67403;50.104;8.758;2023-04-21T14:23:15;7.60;;;6.30;;
28022;SDS011;67403;50.104;8.758;2023-04-21T14:25:42;7.47;;;6.43;;
28022;SDS011;67403;50.104;8.758;2023-04-21T14:28:09;9.50;;;7.88;;
28022;SDS011;67403;50.104;8.758;2023-04-21T14:30:36;6.95;;;6.25;;
28022;SDS011;67403;50.104;8.758;2023-04-21T14:33:04;8.15;;;6.25;;
28022;SDS011;67403;50.104;8.758;2023-04-21T14:35:31;6.50;;;5.75;;